• Join FlightAware (Why Join?)
  • Login
  • US Flag 
06:09PM EST


 

Airport Tracker/Info


-or-


 

Live Flight TrackerFlight Track Log ✈ ASQ5089 ✈ 23-Jul-2013 ✈ KSHV - KATL

Flight Track Log - Related Links

Times and Time Zones

All times are in EDT time to prevent confusion due to time zone crossing. See the ASQ5089 flight status page for this flight to view local times or setup timezone preferences in your user account.

Time Position Orientation Groundspeed Altitude Reporting Facility
EDT Latitude Longitude Course Direction KTS MPH feet Rate Location/Type
05:27PM 32.4269 -93.8128 137° Southeast 163 188 1,100  Level Fort Worth Center
05:27PM 32.3969 -93.7794 137° Southeast 199 229 2,700 1,872 Climbing Fort Worth Center
05:28PM 32.4069 -93.7003 81° East 284 327 4,500 2,164 Climbing Fort Worth Center
05:29PM 32.4400 -93.6153 65° Northeast 301 346 7,100 2,565 Climbing Fort Worth Center
05:31PM 32.4789 -93.5178 65° Northeast 302 348 9,800 2,049 Climbing Fort Worth Center
05:32PM 32.5181 -93.4372 60° Northeast 302 348 11,300 1,250 Climbing Fort Worth Center
05:33PM 32.6008 -93.3544 40° Northeast 330 380 12,300 1,150 Climbing Fort Worth Center
05:34PM 32.6761 -93.2869 37° Northeast 364 419 13,600 1,350 Climbing Fort Worth Center
05:35PM 32.7711 -93.1961 39° Northeast 385 443 15,000 1,550 Climbing Fort Worth Center
05:36PM 32.8561 -93.1206 37° Northeast 385 443 16,700 1,550 Climbing Fort Worth Center
05:37PM 32.9392 -93.0422 38° Northeast 380 437 18,100 1,300 Climbing Fort Worth Center
05:38PM 33.0239 -92.9636 38° Northeast 380 437 19,300 1,200 Climbing Fort Worth Center
05:39PM 33.1108 -92.8800 39° Northeast 380 437 20,500 1,050 Climbing Fort Worth Center
05:40PM 33.1894 -92.8067 38° Northeast 387 445 21,400 850 Climbing Fort Worth Center
05:41PM 33.2739 -92.7178 41° Northeast 393 452 22,200 750 Climbing Fort Worth Center
05:42PM 33.3361 -92.6025 57° Northeast 398 458 22,900 400 Climbing Fort Worth Center
05:43PM 33.3747 -92.4661 71° East 409 471 23,000 50 Climbing Fort Worth Center
05:44PM 33.4278 -92.3314 65° Northeast 422 486 23,000  Level Fort Worth Center
05:45PM 33.5639 -92.0825 57° Northeast 450 518 23,000  Level Memphis Center
05:46PM 33.6408 -91.9617 53° Northeast 456 525 23,000  Level Memphis Center
05:47PM 33.6675 -91.8147 78° East 446 513 23,000 150 Level Memphis Center
05:48PM 33.6211 -91.6694 111° Southeast 411 473 23,300 900 Climbing Memphis Center
05:49PM 33.5619 -91.5339 118° Southeast 421 484 24,800 843 Climbing Memphis Center
05:50PM 33.5108 -91.4161 117° Southeast 437 503 25,000 100 Climbing Memphis Center
05:51PM 33.4575 -91.2833 116° Southeast 442 509 25,000  Level Memphis Center
05:52PM 33.4000 -91.1511 117° Southeast 448 516 25,000  Level Memphis Center
05:53PM 33.3425 -91.0136 117° Southeast 453 521 25,000  Level Memphis Center
05:54PM 33.2847 -90.8767 117° Southeast 453 521 25,000  Level Memphis Center
05:55PM 33.2267 -90.7372 116° Southeast 453 521 25,000  Level Memphis Center
05:56PM 33.1664 -90.6006 118° Southeast 458 527 25,000 100 Level Memphis Center
05:57PM 33.1061 -90.4614 117° Southeast 458 527 25,200 550 Climbing Memphis Center
05:58PM 33.0478 -90.3275 117° Southeast 458 527 26,100 950 Climbing Memphis Center
05:59PM 32.9911 -90.1964 117° Southeast 452 520 27,100 1,000 Climbing Memphis Center
06:00PM 32.9367 -90.0703 117° Southeast 447 514 28,100 1,000 Climbing Memphis Center
06:01PM 32.8736 -89.9344 119° Southeast 437 503 29,100 800 Climbing Memphis Center
06:02PM 32.8167 -89.8036 117° Southeast 437 503 29,700 550 Climbing Memphis Center
06:03PM 32.7639 -89.6753 116° Southeast 430 495 30,200 500 Climbing Memphis Center
06:04PM 32.7111 -89.5525 117° Southeast 430 495 30,700 400 Climbing Memphis Center
06:05PM 32.6536 -89.4222 118° Southeast 430 495 31,000 150 Climbing Memphis Center
06:06PM 32.5983 -89.2944 117° Southeast 430 495 31,000  Level Memphis Center
06:07PM 32.5472 -89.1792 118° Southeast 430 495 31,000  Level Memphis Center
06:08PM 32.4897 -89.0519 118° Southeast 430 495 31,000  Level Memphis Center
06:09PM 32.4339 -88.9272 118° Southeast 430 495 31,000  Level Memphis Center
06:11PM 32.3950 -88.6558 100° East 412 474 31,000  Level Atlanta Center
06:12PM 32.4128 -88.5142 82° East 418 481 31,000  Level Atlanta Center
06:13PM 32.4325 -88.3700 81° East 431 496 31,000  Level Atlanta Center
06:14PM 32.4478 -88.2281 83° East 437 503 31,000  Level Atlanta Center
06:15PM 32.4650 -88.0836 82° East 442 509 31,000  Level Atlanta Center
06:16PM 32.4819 -87.9464 82° East 455 524 31,000 -50 Level Atlanta Center
06:17PM 32.5094 -87.8047 77° East 455 524 30,900 -550 Descending Atlanta Center
06:18PM 32.5472 -87.6561 73° East 461 531 29,900 -950 Descending Atlanta Center
06:19PM 32.5744 -87.5069 78° East 461 531 29,000 -450 Descending Atlanta Center
06:20PM 32.6078 -87.3603 75° East 466 536 29,000  Level Atlanta Center
06:21PM 32.6408 -87.2183 75° East 461 531 29,000 -150 Level Atlanta Center
06:22PM 32.6717 -87.0714 76° East 451 519 28,700 -700 Descending Atlanta Center
06:23PM 32.6981 -86.9267 78° East 451 519 27,600 -850 Descending Atlanta Center
06:24PM 32.7350 -86.7675 75° East 462 532 27,000 -300 Descending Atlanta Center
06:25PM 32.7697 -86.6056 76° East 469 540 27,000  Level Atlanta Center
06:26PM 32.8000 -86.4581 76° East 460 529 27,000  Level Atlanta Center
06:27PM 32.8300 -86.3033 77° East 460 529 27,000 -550 Level Atlanta Center
06:28PM 32.8572 -86.1753 76° East 441 507 25,900 -1,050 Descending Atlanta Center
06:29PM 32.8869 -86.0300 76° East 441 507 24,900 -950 Descending Atlanta Center
06:30PM 32.9142 -85.8922 77° East 429 494 24,000 -450 Descending Atlanta Center
06:31PM 32.9411 -85.7542 77° East 429 494 24,000  Level Atlanta Center
06:32PM 32.9700 -85.6186 76° East 429 494 24,000 -950 Level Atlanta Center
06:33PM 33.0011 -85.4778 75° East 429 494 22,100 -2,050 Descending Atlanta Center
06:34PM 33.0506 -85.3475 66° East 429 494 19,900 -2,250 Descending Atlanta Center
06:35PM 33.1061 -85.2242 62° Northeast 413 475 17,600 -2,300 Descending Atlanta Center
06:36PM 33.1572 -85.0983 64° Northeast 418 481 15,300 -1,950 Descending Atlanta Center
06:37PM 33.2125 -84.9947 57° Northeast 395 455 13,700 -1,550 Descending Atlanta Center
06:38PM 33.2842 -84.9011 48° Northeast 378 435 12,200 -850 Descending Atlanta Center
06:39PM 33.3494 -84.8097 49° Northeast 367 422 12,000 -100 Descending Atlanta Center
06:40PM 33.4167 -84.7208 48° Northeast 362 417 12,000  Level Atlanta Center
06:41PM 33.4775 -84.6392 48° Northeast 347 399 12,000  Level Atlanta Center
06:42PM 33.5258 -84.5744 48° Northeast 289 333 12,000 -1,050 Level Atlanta Center
06:43PM 33.5431 -84.4950 75° East 243 280 9,900 -2,150 Descending Atlanta Center
06:44PM 33.5453 -84.4078 88° East 243 280 7,700 -2,182 Descending Atlanta Center
06:45PM 33.5500 -84.3500 84° East 242 278 6,300 -2,000 Descending Atlanta TRACON
06:46PM 33.5500 -84.2833 90° East 235 270 4,600 -1,650 Descending Atlanta TRACON
06:47PM 33.5833 -84.2500 40° Northeast 226 260 3,000 -762 Descending Atlanta TRACON
06:48PM 33.6167 -84.3000 309° West 176 203 3,000 -450 Level Atlanta TRACON
06:49PM 33.6167 -84.3500 270° West 136 157 2,100 -737 Descending Atlanta TRACON
06:50PM 33.6167 -84.3833 270° West 132 152 1,600 -556 Descending Atlanta TRACON
06:52PM 33.6333 -84.4167 301° West  Level FlightAware Approximate
06:59PM 33.6367 -84.4279 301° West  Level Estimated